SVBX weather

La Cabaña Airport
Zulia, Venezuela

Public forecast

Using degrees Celsius for public forecast. Weather courtesy of forecast.io.

Closest aviation weather report (METAR) to La Cabaña Airport

Closest report is Alfonso López Pumarejo Airport, 51.6 nm (95.6 km) NW. Retrieved 2019/10/14 12:00 UTC (26 minutes ago):

SKVP 141200Z 28004KT 9999 VCSH BKN010 24/23 A2999 RMK VCSH/W/NW

Closest aviation forecast (TAF) to La Cabaña Airport

Forecast is more than 12 hours old.

Closest forecast is Villa del Rosario Airport, 40.6 nm (75.2 km) NE. Retrieved 2019/09/09 18:00 UTC (1 month ago):

TAF SVVS 091700Z 0918/1018 18004KT 9999 BKN016 TX30/0919Z TN22/1008Z TEMPO 0919/0921 9000 DZ TEMPO 0922/1002 24005KT 9999 SCT016 SCT150